createdAt,value
2019-02-23T00:01:52.381Z,7.40
2019-02-23T00:04:22.869Z,7.40
2019-02-23T00:06:53.237Z,7.30
2019-02-23T00:09:23.902Z,7.30
2019-02-23T00:11:54.254Z,7.30
2019-02-23T00:14:24.613Z,7.20
2019-02-23T00:16:55.006Z,7.20
2019-02-23T00:19:25.419Z,7.10
2019-02-23T00:21:55.793Z,7.10
2019-02-23T00:24:26.154Z,7.10
2019-02-23T00:26:56.546Z,7.10
2019-02-23T00:29:26.908Z,7.00
2019-02-23T00:31:57.296Z,7.00
2019-02-23T00:34:27.662Z,6.90
2019-02-23T00:36:58.040Z,7.00
2019-02-23T00:39:28.445Z,7.00
2019-02-23T00:41:58.798Z,7.00
2019-02-23T00:44:29.169Z,6.90
2019-02-23T00:46:59.529Z,6.90
2019-02-23T00:49:36.187Z,6.80
2019-02-23T00:52:02.014Z,6.80
2019-02-23T00:54:32.370Z,6.80
2019-02-23T00:57:02.753Z,6.80
2019-02-23T00:59:33.171Z,6.70
2019-02-23T01:02:03.531Z,6.70
2019-02-23T01:04:33.900Z,6.70
2019-02-23T01:07:04.266Z,6.70
2019-02-23T01:09:34.657Z,6.70
2019-02-23T01:12:05.006Z,6.70
2019-02-23T01:14:35.530Z,6.60
2019-02-23T01:17:05.918Z,6.60
2019-02-23T01:19:47.056Z,6.70
2019-02-23T01:22:08.381Z,6.60
2019-02-23T01:24:38.799Z,6.60
2019-02-23T01:27:09.264Z,6.60
2019-02-23T01:29:39.657Z,6.60
2019-02-23T01:32:10.017Z,6.60
2019-02-23T01:34:40.378Z,6.50
2019-02-23T01:37:10.758Z,6.50
2019-02-23T01:39:41.114Z,6.40
2019-02-23T01:42:11.619Z,6.40
2019-02-23T01:44:41.986Z,6.30
2019-02-23T01:47:12.423Z,6.20
2019-02-23T01:49:42.834Z,6.20
2019-02-23T01:52:13.180Z,6.20
2019-02-23T01:54:43.582Z,6.20
2019-02-23T01:57:14.023Z,6.20
2019-02-23T01:59:44.402Z,6.30
2019-02-23T02:02:15.772Z,6.10
2019-02-23T02:04:46.145Z,6.20
2019-02-23T02:07:16.502Z,6.20
2019-02-23T02:09:46.877Z,6.20
2019-02-23T02:12:17.272Z,6.20
2019-02-23T02:14:47.622Z,6.00
2019-02-23T02:17:18.010Z,6.10
2019-02-23T02:19:48.365Z,6.00
2019-02-23T02:22:18.742Z,6.00
2019-02-23T02:24:49.093Z,5.90
2019-02-23T02:27:19.453Z,5.80
2019-02-23T02:29:49.822Z,5.80
2019-02-23T02:32:20.190Z,5.80
2019-02-23T02:34:50.606Z,5.70
2019-02-23T02:37:20.962Z,5.60
2019-02-23T02:39:51.310Z,5.60
2019-02-23T02:42:21.682Z,5.60
2019-02-23T02:44:52.038Z,5.50
2019-02-23T02:47:22.430Z,5.60
2019-02-23T02:49:52.794Z,5.70
2019-02-23T02:52:23.154Z,5.60
2019-02-23T02:54:53.495Z,5.60
2019-02-23T02:57:23.873Z,5.50
2019-02-23T02:59:54.246Z,5.40
2019-02-23T03:02:24.608Z,5.40
2019-02-23T03:04:55.059Z,5.40
2019-02-23T03:07:25.426Z,5.40
2019-02-23T03:09:55.779Z,5.20
2019-02-23T03:12:26.151Z,5.20
2019-02-23T03:14:56.538Z,5.30
2019-02-23T03:17:26.917Z,5.30
2019-02-23T03:19:57.319Z,5.20
2019-02-23T03:22:27.714Z,5.20
2019-02-23T03:24:58.092Z,5.10
2019-02-23T03:27:30.952Z,5.00
2019-02-23T03:30:01.334Z,5.10
2019-02-23T03:32:31.705Z,5.00
2019-02-23T03:35:02.156Z,5.00
2019-02-23T03:37:32.518Z,5.00
2019-02-23T03:40:02.928Z,5.10
2019-02-23T03:42:33.286Z,5.00
2019-02-23T03:45:03.678Z,5.00
2019-02-23T03:47:34.088Z,5.00
2019-02-23T03:50:04.561Z,5.00
2019-02-23T03:52:34.926Z,5.00
2019-02-23T03:55:05.634Z,5.00
2019-02-23T03:57:35.997Z,5.00
2019-02-23T04:00:07.284Z,5.00
2019-02-23T04:02:37.739Z,5.00
2019-02-23T04:05:08.142Z,5.00
2019-02-23T04:07:38.498Z,5.00
2019-02-23T04:10:08.876Z,4.90
2019-02-23T04:12:39.230Z,5.00
2019-02-23T04:15:09.730Z,5.00
2019-02-23T04:17:40.084Z,4.90
2019-02-23T04:20:10.465Z,5.00
2019-02-23T04:22:40.841Z,5.00
2019-02-23T04:25:11.246Z,5.00
2019-02-23T04:27:44.746Z,5.10
2019-02-23T04:30:15.202Z,5.10
2019-02-23T04:32:45.650Z,5.10
2019-02-23T04:35:16.030Z,5.10
2019-02-23T04:37:46.425Z,5.10
2019-02-23T04:40:16.789Z,5.20
2019-02-23T04:42:47.164Z,5.20
2019-02-23T04:45:17.521Z,5.20
2019-02-23T04:47:47.980Z,5.10
2019-02-23T04:50:18.337Z,5.20
2019-02-23T04:52:48.700Z,5.10
2019-02-23T04:55:19.072Z,5.20
2019-02-23T04:57:49.475Z,5.10
2019-02-23T05:00:19.845Z,5.00
2019-02-23T05:02:50.213Z,5.00
2019-02-23T05:05:20.563Z,5.00
2019-02-23T05:07:51.009Z,5.00
2019-02-23T05:10:21.402Z,4.90
2019-02-23T05:12:51.790Z,4.90
2019-02-23T05:15:22.228Z,4.80
2019-02-23T05:17:55.417Z,4.70
2019-02-23T05:20:24.715Z,4.60
2019-02-23T05:22:55.309Z,4.70
2019-02-23T05:25:25.702Z,4.60
2019-02-23T05:27:56.098Z,4.50
2019-02-23T05:30:26.603Z,4.40
2019-02-23T05:32:56.989Z,4.50
2019-02-23T05:35:27.401Z,4.40
2019-02-23T05:37:57.811Z,4.40
2019-02-23T05:40:28.218Z,4.40
2019-02-23T05:43:01.280Z,4.30
2019-02-23T05:45:30.657Z,4.20
2019-02-23T05:48:01.060Z,4.10
2019-02-23T05:50:31.443Z,4.00
2019-02-23T05:53:01.869Z,4.00
2019-02-23T05:55:32.273Z,4.00
2019-02-23T05:58:02.725Z,3.90
2019-02-23T06:00:33.141Z,3.90
2019-02-23T06:03:03.550Z,3.90
2019-02-23T06:05:34.459Z,3.90
2019-02-23T06:08:04.911Z,3.80
2019-02-23T06:10:35.321Z,3.80
2019-02-23T06:13:05.719Z,3.80
2019-02-23T06:15:36.203Z,3.80
2019-02-23T06:18:06.685Z,3.80
2019-02-23T06:20:37.170Z,3.80
2019-02-23T06:23:07.574Z,3.80
2019-02-23T06:25:38.035Z,3.70
2019-02-23T06:28:08.397Z,3.70
2019-02-23T06:30:38.816Z,3.60
2019-02-23T06:33:09.190Z,3.60
2019-02-23T06:35:39.634Z,3.60
2019-02-23T06:38:10.013Z,3.60
2019-02-23T06:40:40.448Z,3.60
2019-02-23T06:43:10.843Z,3.60
2019-02-23T06:45:41.250Z,3.50
2019-02-23T06:48:11.642Z,3.60
2019-02-23T06:50:42.039Z,3.60
2019-02-23T06:53:12.428Z,3.60
2019-02-23T06:55:42.896Z,3.50
2019-02-23T06:58:13.260Z,3.50
2019-02-23T07:00:43.645Z,3.50
2019-02-23T07:03:14.054Z,3.40
2019-02-23T07:05:44.556Z,3.30
2019-02-23T07:08:14.959Z,3.30
2019-02-23T07:10:45.363Z,3.30
2019-02-23T07:13:15.777Z,3.30
2019-02-23T07:15:46.270Z,3.30
2019-02-23T07:18:16.784Z,3.50
2019-02-23T07:20:47.301Z,3.70
2019-02-23T07:23:17.712Z,3.90
2019-02-23T07:25:48.097Z,3.90
2019-02-23T07:28:18.511Z,4.10
2019-02-23T07:30:48.909Z,4.20
2019-02-23T07:33:32.085Z,4.30
2019-02-23T07:35:51.502Z,4.40
2019-02-23T07:38:21.910Z,4.40
2019-02-23T07:40:52.339Z,4.50
2019-02-23T07:43:22.751Z,4.40
2019-02-23T07:45:53.138Z,4.40
2019-02-23T07:48:23.539Z,4.50
2019-02-23T07:50:53.944Z,4.50
2019-02-23T07:53:24.337Z,4.50
2019-02-23T07:55:55.403Z,4.50
2019-02-23T07:58:25.799Z,4.60
2019-02-23T08:00:56.205Z,4.70
2019-02-23T08:03:26.627Z,4.80
2019-02-23T08:05:57.043Z,4.90
2019-02-23T08:08:27.464Z,5.10
2019-02-23T08:10:57.961Z,5.10
2019-02-23T08:13:28.387Z,5.30
2019-02-23T08:15:58.801Z,5.60
2019-02-23T08:18:29.310Z,6.00
2019-02-23T08:20:59.715Z,6.40
2019-02-23T08:23:30.216Z,6.70
2019-02-23T08:26:00.657Z,6.90
2019-02-23T08:28:31.060Z,7.10
2019-02-23T08:31:04.518Z,7.30
2019-02-23T08:33:34.905Z,7.30
2019-02-23T08:36:05.313Z,7.30
2019-02-23T08:38:35.755Z,7.40
2019-02-23T08:41:06.150Z,7.40
2019-02-23T08:43:36.544Z,7.30
2019-02-23T08:46:07.011Z,7.50
2019-02-23T08:48:37.395Z,7.50
2019-02-23T08:51:07.872Z,7.70
2019-02-23T08:53:38.287Z,7.80
2019-02-23T08:56:08.733Z,7.90
2019-02-23T08:58:39.144Z,8.00
2019-02-23T09:01:09.563Z,8.10
2019-02-23T09:03:39.937Z,8.10
2019-02-23T09:06:10.365Z,8.10
2019-02-23T09:08:40.849Z,8.30
2019-02-23T09:11:11.350Z,8.40
2019-02-23T09:13:41.762Z,8.60
2019-02-23T09:16:12.199Z,8.60
2019-02-23T09:18:42.635Z,8.70
2019-02-23T09:21:13.032Z,8.70
2019-02-23T09:23:43.455Z,8.70
2019-02-23T09:26:13.861Z,8.60
2019-02-23T09:28:44.332Z,8.50
2019-02-23T09:31:14.748Z,8.70
2019-02-23T09:33:45.240Z,8.80
2019-02-23T09:36:15.654Z,8.90
2019-02-23T09:38:46.070Z,9.20
2019-02-23T09:41:18.013Z,9.30
2019-02-23T09:43:48.562Z,9.50
2019-02-23T09:46:19.110Z,9.60
2019-02-23T09:48:49.522Z,9.80
2019-02-23T09:51:19.947Z,9.90
2019-02-23T09:53:50.390Z,10.00
2019-02-23T09:56:20.774Z,10.00
2019-02-23T09:58:51.253Z,9.90
2019-02-23T10:01:21.672Z,9.90
2019-02-23T10:03:52.249Z,10.00
2019-02-23T10:06:22.638Z,10.10
2019-02-23T10:08:53.078Z,10.10
2019-02-23T10:11:23.722Z,10.10
2019-02-23T10:13:54.130Z,10.30
2019-02-23T10:16:26.660Z,10.70
2019-02-23T10:18:57.175Z,11.00
2019-02-23T10:21:27.607Z,11.30
2019-02-23T10:23:58.050Z,11.50
2019-02-23T10:26:28.543Z,11.80
2019-02-23T10:28:59.039Z,11.90
2019-02-23T10:31:29.419Z,12.10
2019-02-23T10:33:59.923Z,12.10
2019-02-23T10:36:30.393Z,12.20
2019-02-23T10:39:00.856Z,12.40
2019-02-23T10:41:31.242Z,12.50
2019-02-23T10:44:01.682Z,12.50
2019-02-23T10:46:32.108Z,12.40
2019-02-23T10:49:02.546Z,12.60
2019-02-23T10:51:32.931Z,12.50
2019-02-23T10:54:03.365Z,12.90
2019-02-23T10:56:33.893Z,13.00
2019-02-23T10:59:04.314Z,13.20
2019-02-23T11:01:34.768Z,13.60
2019-02-23T11:04:05.213Z,13.90
2019-02-23T11:06:35.649Z,14.30
2019-02-23T11:09:08.136Z,15.20
2019-02-23T11:11:38.590Z,15.70
2019-02-23T11:14:09.036Z,16.50
2019-02-23T11:16:39.523Z,16.70
2019-02-23T11:19:09.925Z,16.60
2019-02-23T11:21:40.328Z,16.50
2019-02-23T11:24:10.799Z,16.00
2019-02-23T11:26:41.198Z,15.90
2019-02-23T11:29:11.598Z,15.40
2019-02-23T11:31:42.050Z,15.40
2019-02-23T11:34:13.438Z,15.60
2019-02-23T11:36:43.842Z,15.50
2019-02-23T11:39:14.253Z,15.40
2019-02-23T11:41:44.651Z,14.70
2019-02-23T11:44:15.048Z,14.20
2019-02-23T11:46:59.922Z,13.80
2019-02-23T11:49:17.593Z,13.70
2019-02-23T11:51:47.998Z,13.50
2019-02-23T11:54:18.356Z,13.70
2019-02-23T11:56:48.804Z,13.80
2019-02-23T11:59:19.261Z,13.80
2019-02-23T12:01:49.667Z,14.10
2019-02-23T12:04:20.069Z,14.10
2019-02-23T12:06:50.485Z,13.90
2019-02-23T12:09:20.891Z,14.20
2019-02-23T12:11:51.275Z,14.60
2019-02-23T12:14:21.654Z,14.80
2019-02-23T12:16:52.103Z,14.90
2019-02-23T12:19:22.510Z,15.00
2019-02-23T12:21:52.918Z,14.80
2019-02-23T12:24:23.347Z,14.80
2019-02-23T12:26:53.765Z,14.70
2019-02-23T12:29:24.182Z,15.00
2019-02-23T12:31:54.588Z,15.10
2019-02-23T12:34:25.023Z,15.10
2019-02-23T12:36:57.534Z,15.10
2019-02-23T12:39:27.787Z,15.10
2019-02-23T12:41:58.185Z,15.10
2019-02-23T12:44:28.654Z,15.00
2019-02-23T12:46:59.051Z,15.00
2019-02-23T12:49:29.434Z,14.60
2019-02-23T12:51:59.869Z,14.70
2019-02-23T12:54:30.358Z,14.70
2019-02-23T12:57:00.726Z,14.30
2019-02-23T12:59:31.334Z,14.20
2019-02-23T13:02:01.734Z,13.70
2019-02-23T13:04:32.162Z,13.70
2019-02-23T13:07:02.592Z,13.70
2019-02-23T13:09:35.512Z,13.80
2019-02-23T13:12:42.939Z,13.60
2019-02-23T13:15:35.998Z,13.70
2019-02-23T13:19:05.664Z,13.60
2019-02-23T13:21:49.442Z,14.00
2019-02-23T13:24:45.717Z,14.20
2019-02-23T13:27:57.474Z,14.20
2019-02-23T13:31:30.172Z,14.30
2019-02-23T13:34:25.017Z,14.20
2019-02-23T13:37:26.989Z,14.00
2019-02-23T13:40:32.193Z,14.20
2019-02-23T13:43:36.312Z,14.60
2019-02-23T13:46:53.678Z,14.80
2019-02-23T13:49:36.585Z,15.00
2019-02-23T13:52:27.607Z,15.20
2019-02-23T13:55:50.279Z,15.40
2019-02-23T13:58:54.350Z,15.50
2019-02-23T14:02:04.443Z,15.50
2019-02-23T14:05:05.554Z,15.50
2019-02-23T14:08:19.553Z,15.60
2019-02-23T14:11:52.572Z,15.30
2019-02-23T14:15:09.649Z,15.30
2019-02-23T14:18:01.738Z,15.30
2019-02-23T14:21:07.431Z,15.20
2019-02-23T14:24:30.189Z,15.20
2019-02-23T14:27:40.704Z,14.90
2019-02-23T14:30:37.513Z,14.50
2019-02-23T14:33:47.823Z,14.50
2019-02-23T14:36:55.256Z,14.60
2019-02-23T14:40:02.650Z,14.90
2019-02-23T14:43:13.523Z,15.10
2019-02-23T14:46:05.982Z,15.40
2019-02-23T14:48:54.239Z,15.10
2019-02-23T14:52:26.850Z,14.80
2019-02-23T14:55:08.546Z,14.50
2019-02-23T14:58:14.929Z,14.30
2019-02-23T15:01:22.001Z,13.90
2019-02-23T15:04:12.718Z,13.90
2019-02-23T15:07:03.647Z,13.70
2019-02-23T15:10:18.050Z,13.70
2019-02-23T15:12:47.489Z,13.60
2019-02-23T15:15:54.968Z,13.40
2019-02-23T15:18:39.361Z,13.30
2019-02-23T15:22:02.976Z,13.10
2019-02-23T15:25:41.774Z,12.70
2019-02-23T15:28:43.985Z,12.60
2019-02-23T15:32:13.391Z,12.20
2019-02-23T15:35:13.840Z,11.90
2019-02-23T15:38:15.837Z,11.90
2019-02-23T15:41:06.502Z,11.90
2019-02-23T15:44:04.978Z,11.90
2019-02-23T15:47:06.928Z,11.70
2019-02-23T15:49:37.592Z,11.60
2019-02-23T15:52:08.840Z,11.40
2019-02-23T15:54:39.422Z,11.30
2019-02-23T15:57:10.013Z,11.20
2019-02-23T15:59:40.438Z,11.10
2019-02-23T16:02:10.927Z,11.00
2019-02-23T16:04:41.575Z,11.10
2019-02-23T16:07:11.993Z,11.00
2019-02-23T16:09:42.398Z,10.90
2019-02-23T16:12:12.898Z,10.80
2019-02-23T16:14:43.448Z,10.80
2019-02-23T16:17:13.930Z,10.70
2019-02-23T16:19:44.365Z,10.60
2019-02-23T16:22:14.918Z,10.60
2019-02-23T16:24:45.297Z,10.60
2019-02-23T16:27:15.762Z,10.60
2019-02-23T16:29:46.270Z,10.40
2019-02-23T16:32:16.877Z,10.40
2019-02-23T16:34:47.486Z,10.40
2019-02-23T16:37:18.150Z,10.30
2019-02-23T16:39:48.546Z,10.20
2019-02-23T16:42:19.027Z,10.30
2019-02-23T16:44:49.616Z,10.20
2019-02-23T16:47:19.998Z,10.10
2019-02-23T16:49:50.513Z,10.00
2019-02-23T16:52:21.109Z,10.00
2019-02-23T16:54:51.593Z,9.90
2019-02-23T16:57:22.331Z,9.90
2019-02-23T16:59:52.779Z,9.90
2019-02-23T17:02:23.168Z,9.90
2019-02-23T17:04:54.186Z,9.80
2019-02-23T17:07:24.814Z,9.70
2019-02-23T17:09:55.181Z,9.60
2019-02-23T17:12:25.910Z,9.50
2019-02-23T17:14:56.328Z,9.50
2019-02-23T17:17:26.780Z,9.40
2019-02-23T17:19:57.139Z,9.40
2019-02-23T17:22:27.534Z,9.30
2019-02-23T17:24:57.958Z,9.30
2019-02-23T17:27:36.182Z,9.30
2019-02-23T17:30:00.579Z,9.20
2019-02-23T17:32:31.025Z,9.20
2019-02-23T17:35:01.525Z,8.90
2019-02-23T17:37:32.157Z,8.90
2019-02-23T17:40:02.573Z,8.80
2019-02-23T17:42:33.149Z,8.90
2019-02-23T17:45:04.022Z,8.80
2019-02-23T17:47:34.785Z,8.80
2019-02-23T17:50:05.277Z,8.80
2019-02-23T17:52:35.675Z,8.70
2019-02-23T17:55:06.151Z,8.70
2019-02-23T17:57:36.554Z,8.70
2019-02-23T18:00:07.967Z,8.60
2019-02-23T18:02:38.403Z,8.60
2019-02-23T18:05:08.833Z,8.60
2019-02-23T18:07:39.473Z,8.50
2019-02-23T18:10:10.151Z,8.50
2019-02-23T18:12:40.510Z,8.50
2019-02-23T18:15:10.917Z,8.50
2019-02-23T18:17:41.303Z,8.40
2019-02-23T18:20:12.369Z,8.30
2019-02-23T18:22:42.931Z,8.20
2019-02-23T18:25:13.310Z,8.30
2019-02-23T18:27:43.688Z,8.30
2019-02-23T18:30:14.361Z,8.30
2019-02-23T18:32:44.884Z,8.10
2019-02-23T18:35:15.370Z,8.10
2019-02-23T18:37:45.809Z,8.10
2019-02-23T18:40:16.227Z,8.00
2019-02-23T18:42:46.591Z,7.90
2019-02-23T18:45:17.009Z,7.90
2019-02-23T18:47:47.379Z,7.90
2019-02-23T18:50:17.783Z,7.90
2019-02-23T18:52:48.161Z,7.80
2019-02-23T18:55:18.645Z,7.80
2019-02-23T18:57:49.316Z,7.80
2019-02-23T19:00:24.296Z,7.80
2019-02-23T19:02:51.786Z,7.80
2019-02-23T19:05:22.200Z,7.60
2019-02-23T19:07:52.554Z,7.60
2019-02-23T19:10:22.919Z,7.60
2019-02-23T19:12:53.293Z,7.50
2019-02-23T19:15:23.707Z,7.40
2019-02-23T19:17:54.155Z,7.40
2019-02-23T19:20:24.506Z,7.30
2019-02-23T19:22:54.869Z,7.20
2019-02-23T19:25:25.281Z,7.20
2019-02-23T19:27:55.682Z,7.20
2019-02-23T19:30:26.039Z,7.10
2019-02-23T19:32:56.453Z,7.10
2019-02-23T19:35:26.813Z,7.00
2019-02-23T19:37:57.214Z,6.90
2019-02-23T19:40:27.586Z,6.90
2019-02-23T19:42:57.967Z,6.90
2019-02-23T19:45:28.329Z,6.80
2019-02-23T19:47:58.721Z,6.70
2019-02-23T19:50:32.821Z,6.60
2019-02-23T19:53:03.230Z,6.70
2019-02-23T19:55:33.597Z,6.60
2019-02-23T19:58:04.059Z,6.60
2019-02-23T20:00:34.427Z,6.50
2019-02-23T20:03:04.872Z,6.40
2019-02-23T20:05:35.305Z,6.40
2019-02-23T20:08:05.918Z,6.40
2019-02-23T20:10:36.314Z,6.30
2019-02-23T20:13:06.741Z,6.10
2019-02-23T20:15:37.209Z,6.00
2019-02-23T20:18:07.730Z,6.00
2019-02-23T20:20:38.103Z,6.00
2019-02-23T20:23:08.959Z,5.90
2019-02-23T20:25:39.424Z,5.90
2019-02-23T20:28:09.870Z,6.00
2019-02-23T20:30:40.267Z,6.00
2019-02-23T20:33:10.662Z,6.00
2019-02-23T20:35:41.094Z,6.00
2019-02-23T20:38:11.506Z,5.90
2019-02-23T20:40:41.938Z,6.00
2019-02-23T20:43:12.305Z,6.00
2019-02-23T20:45:42.704Z,5.90
2019-02-23T20:48:13.149Z,5.90
2019-02-23T20:50:43.586Z,5.80
2019-02-23T20:53:14.024Z,5.90
2019-02-23T20:55:44.401Z,5.80
2019-02-23T20:58:14.769Z,5.70
2019-02-23T21:00:45.137Z,5.70
2019-02-23T21:03:15.498Z,5.70
2019-02-23T21:05:45.953Z,5.70
2019-02-23T21:08:16.391Z,5.60
2019-02-23T21:10:46.958Z,5.60
2019-02-23T21:13:17.314Z,5.50
2019-02-23T21:15:47.729Z,5.50
2019-02-23T21:18:18.114Z,5.50
2019-02-23T21:20:48.486Z,5.50
2019-02-23T21:23:18.839Z,5.40
2019-02-23T21:25:49.276Z,5.40
2019-02-23T21:28:19.633Z,5.30
2019-02-23T21:30:50.035Z,5.20
2019-02-23T21:33:20.388Z,5.30
2019-02-23T21:35:50.765Z,5.30
2019-02-23T21:38:21.266Z,5.30
2019-02-23T21:40:51.633Z,5.20
2019-02-23T21:43:22.027Z,5.10
2019-02-23T21:45:52.507Z,5.20
2019-02-23T21:48:22.909Z,5.10
2019-02-23T21:50:53.321Z,5.10
2019-02-23T21:53:23.961Z,5.10
2019-02-23T21:55:54.489Z,5.00
2019-02-23T21:58:26.561Z,5.00
2019-02-23T22:00:57.228Z,4.90
2019-02-23T22:03:27.686Z,4.90
2019-02-23T22:05:58.224Z,4.90
2019-02-23T22:08:28.683Z,4.70
2019-02-23T22:10:59.166Z,4.70
2019-02-23T22:13:30.472Z,4.60
2019-02-23T22:16:00.839Z,4.60
2019-02-23T22:18:31.318Z,4.60
2019-02-23T22:21:01.687Z,4.60
2019-02-23T22:23:32.076Z,4.50
2019-02-23T22:26:02.534Z,4.50
2019-02-23T22:28:32.898Z,4.50
2019-02-23T22:31:03.247Z,4.50
2019-02-23T22:33:33.718Z,4.50
2019-02-23T22:36:04.192Z,4.60
2019-02-23T22:38:34.582Z,4.50
2019-02-23T22:41:05.003Z,4.50
2019-02-23T22:43:35.413Z,4.50
2019-02-23T22:46:05.781Z,4.40
2019-02-23T22:48:36.152Z,4.40
2019-02-23T22:51:06.489Z,4.40
2019-02-23T22:53:36.921Z,4.40
2019-02-23T22:56:07.342Z,4.30
2019-02-23T22:58:37.744Z,4.30
2019-02-23T23:01:08.181Z,4.30
2019-02-23T23:03:38.632Z,4.30
2019-02-23T23:06:09.063Z,4.30
2019-02-23T23:08:39.458Z,4.20
2019-02-23T23:11:09.929Z,4.20
2019-02-23T23:13:40.409Z,4.20
2019-02-23T23:16:10.759Z,4.20
2019-02-23T23:18:41.310Z,4.20
2019-02-23T23:21:11.676Z,4.20
2019-02-23T23:23:42.062Z,4.20
2019-02-23T23:26:12.542Z,4.20
2019-02-23T23:28:42.917Z,4.10
2019-02-23T23:31:13.288Z,4.10
2019-02-23T23:33:43.657Z,4.10
2019-02-23T23:36:14.193Z,4.00
2019-02-23T23:38:44.529Z,4.10
2019-02-23T23:41:14.918Z,4.10
2019-02-23T23:43:45.274Z,4.10
2019-02-23T23:46:15.638Z,4.10
2019-02-23T23:48:46.095Z,4.10
2019-02-23T23:51:16.468Z,4.00
2019-02-23T23:53:46.806Z,4.10
2019-02-23T23:56:17.158Z,4.10
2019-02-23T23:58:49.263Z,4.10
